Time;durP1;ratioP1;P1;durP2;ratioP2;P2;SDS_P1;SDS_P2;PMS_P1;PMS_P2;Temp;Humidity;BMP_temperature;BMP_pressure;BME280_temperature;BME280_humidity;BME280_pressure;Samples;Min_cycle;Max_cycle;Signal;HPM_P1;HPM_P2
2021/03/12 00:00:17;;;;;;;11.00;9.88;;;;;;;4.89;69.65;95202.54;1736260;83;21223;-83
2021/03/12 00:02:45;;;;;;;9.60;7.03;;;;;;;4.88;69.90;95191.91;1736578;83;21116;-83
2021/03/12 00:05:11;;;;;;;9.28;8.28;;;;;;;4.81;70.01;95204.20;1709203;83;21109;-83
2021/03/12 00:07:38;;;;;;;11.22;9.13;;;;;;;4.78;70.16;95217.91;1735858;83;21267;-83
2021/03/12 00:10:14;;;;;;;10.28;8.25;;;;;;;4.76;69.96;95257.97;1735622;83;21235;-83
2021/03/12 00:12:40;;;;;;;10.00;8.88;;;;;;;4.77;70.33;95244.61;1736366;83;21324;-83
2021/03/12 00:15:08;;;;;;;11.12;8.48;;;;;;;4.77;69.94;95244.13;1736314;83;21137;-83
2021/03/12 00:17:34;;;;;;;10.68;8.23;;;;;;;4.80;70.06;95269.51;1736291;83;21387;-83
2021/03/12 00:20:00;;;;;;;10.75;7.35;;;;;;;4.80;70.08;95285.44;1736424;83;21320;-82
2021/03/12 00:22:26;;;;;;;11.00;9.08;;;;;;;4.78;70.25;95261.66;1736589;83;21124;-83
2021/03/12 00:24:53;;;;;;;10.53;7.95;;;;;;;4.78;70.37;95274.03;1736259;83;21428;-82
2021/03/12 00:27:19;;;;;;;10.95;9.08;;;;;;;4.80;70.93;95278.52;1735758;83;21097;-82
2021/03/12 00:29:44;;;;;;;10.10;8.48;;;;;;;4.80;70.47;95253.27;1735644;83;21120;-82
2021/03/12 00:32:10;;;;;;;8.18;6.75;;;;;;;4.78;70.68;95229.00;1735872;83;21123;-83
2021/03/12 00:34:36;;;;;;;10.60;9.40;;;;;;;4.76;71.62;95222.42;1735905;83;21506;-82
2021/03/12 00:37:02;;;;;;;8.63;7.08;;;;;;;4.75;71.23;95224.69;1735918;83;21439;-82
2021/03/12 00:39:28;;;;;;;8.70;7.05;;;;;;;4.76;71.72;95237.87;1735794;83;21399;-82
2021/03/12 00:41:56;;;;;;;9.63;7.70;;;;;;;4.77;72.05;95232.55;1735533;83;21177;-82
2021/03/12 00:44:25;;;;;;;10.58;7.37;;;;;;;4.79;72.17;95228.51;1735863;83;21371;-82
2021/03/12 00:46:50;;;;;;;8.15;7.15;;;;;;;4.81;71.75;95225.27;1746820;82;21159;-82
2021/03/12 00:49:16;;;;;;;8.73;7.75;;;;;;;4.83;71.71;95220.75;1756730;82;21110;-82
2021/03/12 00:51:42;;;;;;;6.97;6.05;;;;;;;4.86;72.16;95227.31;1750133;82;21178;-82
2021/03/12 00:54:08;;;;;;;8.48;7.12;;;;;;;4.91;72.08;95218.61;1734497;83;21114;-82
2021/03/12 00:56:34;;;;;;;7.72;6.92;;;;;;;4.95;71.80;95223.22;1757081;82;21142;-82
2021/03/12 00:59:00;;;;;;;7.65;6.35;;;;;;;4.98;72.20;95220.78;1749972;82;21145;-82
2021/03/12 01:01:26;;;;;;;7.92;6.35;;;;;;;4.99;72.50;95245.55;1756722;82;21149;-82
2021/03/12 01:03:52;;;;;;;7.58;6.35;;;;;;;5.06;72.46;95265.77;1749766;82;21161;-82
2021/03/12 01:06:18;;;;;;;11.57;9.63;;;;;;;5.10;73.32;95270.39;1757011;82;21122;-82
2021/03/12 01:08:44;;;;;;;10.43;9.15;;;;;;;5.09;73.37;95289.39;1750042;82;21135;-82
2021/03/12 01:11:10;;;;;;;7.95;6.70;;;;;;;5.03;74.06;95279.77;1756930;82;21134;-82
2021/03/12 01:13:36;;;;;;;6.53;5.17;;;;;;;4.96;74.95;95280.16;1750012;82;21114;-82
2021/03/12 01:16:03;;;;;;;6.58;5.87;;;;;;;4.91;75.48;95299.20;1756560;82;21563;-83
2021/03/12 01:18:28;;;;;;;7.50;6.42;;;;;;;4.83;75.88;95303.11;1750009;82;21106;-83
2021/03/12 01:20:54;;;;;;;10.85;9.20;;;;;;;4.76;75.70;95306.86;1734447;83;21348;-83
2021/03/12 01:23:20;;;;;;;35.43;22.05;;;;;;;4.66;75.75;95311.42;1756961;82;21134;-83
2021/03/12 01:25:46;;;;;;;11.05;9.48;;;;;;;4.59;75.88;95321.30;1750026;82;21167;-83
2021/03/12 01:28:12;;;;;;;6.90;5.70;;;;;;;4.55;76.22;95310.52;1780867;80;21134;-83
2021/03/12 01:30:41;;;;;;;9.70;7.55;;;;;;;4.50;76.60;95329.53;1750273;82;21119;-83
2021/03/12 01:33:07;;;;;;;7.95;6.95;;;;;;;4.47;76.69;95337.11;1819656;79;21134;-83
2021/03/12 01:35:34;;;;;;;7.37;4.97;;;;;;;4.43;76.84;95326.05;1819518;78;21114;-83
2021/03/12 01:38:00;;;;;;;5.65;5.08;;;;;;;4.36;76.77;95342.63;1819623;79;21121;-83
2021/03/12 01:40:27;;;;;;;5.83;4.58;;;;;;;4.33;77.73;95351.97;1819513;78;21126;-83
2021/03/12 01:42:54;;;;;;;6.50;5.62;;;;;;;4.33;77.38;95344.73;1819509;79;21244;-83
2021/03/12 01:45:35;;;;;;;5.60;3.70;;;;;;;4.32;76.98;95336.22;1819419;78;21134;-83
2021/03/12 01:48:01;;;;;;;4.10;3.70;;;;;;;4.35;77.49;95313.22;1820277;79;21070;-83
2021/03/12 01:50:27;;;;;;;5.12;4.33;;;;;;;4.30;77.46;95293.64;1820247;79;21392;-83
2021/03/12 01:52:53;;;;;;;4.85;3.77;;;;;;;4.29;77.64;95296.70;1820260;79;21106;-83
2021/03/12 01:55:33;;;;;;;4.25;3.47;;;;;;;4.24;78.82;95300.28;1745907;79;21393;-83
2021/03/12 01:58:00;;;;;;;3.80;3.35;;;;;;;4.20;78.42;95297.70;1820325;78;21365;-84
2021/03/12 02:00:26;;;;;;;4.22;3.58;;;;;;;4.22;77.79;95283.70;1820376;78;21309;-83
2021/03/12 02:02:52;;;;;;;4.00;3.12;;;;;;;4.22;77.95;95284.19;1788353;79;21106;-83
2021/03/12 02:05:18;;;;;;;3.30;3.00;;;;;;;4.21;78.50;95270.53;1820299;79;21122;-83
2021/03/12 02:07:44;;;;;;;4.00;3.60;;;;;;;4.20;78.15;95266.36;1820239;79;21141;-83
2021/03/12 02:10:14;;;;;;;2.87;2.62;;;;;;;4.17;78.20;95258.20;1820228;79;21131;-83
2021/03/12 02:13:20;;;;;;;4.05;3.22;;;;;;;4.18;78.41;95252.88;1788524;79;21095;-83
2021/03/12 02:16:11;;;;;;;4.28;3.87;;;;;;;4.21;78.93;95262.02;1820332;79;21154;-83
2021/03/12 02:19:00;;;;;;;4.62;3.55;;;;;;;4.25;78.24;95256.08;1820328;79;21094;-83
2021/03/12 02:21:40;;;;;;;4.37;3.02;;;;;;;4.29;78.48;95256.05;1820285;78;21102;-83
2021/03/12 02:24:37;;;;;;;5.00;4.10;;;;;;;4.31;78.15;95256.19;1820189;79;21106;-84
2021/03/12 02:27:07;;;;;;;5.25;3.80;;;;;;;4.37;78.58;95230.27;1819986;79;21114;-84
2021/03/12 02:29:33;;;;;;;4.08;3.27;;;;;;;4.51;77.96;95246.25;1781425;80;21441;-84
2021/03/12 02:32:01;;;;;;;4.00;3.20;;;;;;;4.58;78.09;95252.32;1757664;82;21137;-83
2021/03/12 02:34:32;;;;;;;4.22;3.22;;;;;;;4.65;77.43;95242.12;1721595;82;21094;-84
2021/03/12 02:36:59;;;;;;;4.80;4.30;;;;;;;4.65;77.39;95245.50;1757648;82;21079;-84
2021/03/12 02:39:29;;;;;;;4.40;3.42;;;;;;;4.69;77.02;95257.05;1750534;82;21114;-84
2021/03/12 02:41:55;;;;;;;4.20;3.80;;;;;;;4.73;77.08;95263.47;1757645;82;21451;-84
2021/03/12 02:44:23;;;;;;;3.90;3.50;;;;;;;4.74;77.08;95232.89;1721159;82;21143;-84
2021/03/12 02:46:51;;;;;;;4.55;4.15;;;;;;;4.83;77.10;95240.05;1757509;81;21134;-83
2021/03/12 02:49:17;;;;;;;4.60;3.20;;;;;;;4.87;76.43;95243.06;1750638;82;21321;-83
2021/03/12 02:51:43;;;;;;;4.30;3.90;;;;;;;4.90;76.77;95258.98;1735185;83;21110;-83
2021/03/12 02:54:10;;;;;;;6.40;4.90;;;;;;;4.98;76.44;95267.11;1757706;82;21244;-83
2021/03/12 02:56:37;;;;;;;4.72;4.20;;;;;;;5.05;76.10;95252.09;1721056;82;21428;-83
2021/03/12 02:59:03;;;;;;;5.30;3.95;;;;;;;5.09;75.86;95249.97;1757478;82;21334;-83
2021/03/12 03:01:29;;;;;;;5.17;4.22;;;;;;;5.12;76.07;95247.03;1750533;82;21329;-83
2021/03/12 03:03:55;;;;;;;3.85;3.45;;;;;;;5.17;75.80;95249.08;1727428;82;21146;-83
2021/03/12 03:06:21;;;;;;;3.75;3.35;;;;;;;5.25;75.75;95243.86;1721206;82;21114;-83
2021/03/12 03:08:47;;;;;;;6.15;4.35;;;;;;;5.32;75.89;95253.27;1757482;82;21229;-83
2021/03/12 03:11:14;;;;;;;5.25;4.72;;;;;;;5.37;75.76;95234.73;1750612;82;21122;-83
2021/03/12 03:13:42;;;;;;;5.72;4.60;;;;;;;5.41;75.53;95235.48;1757489;82;21091;-83
2021/03/12 03:16:18;;;;;;;4.30;3.87;;;;;;;5.46;75.25;95236.23;1750650;82;21162;-83
2021/03/12 03:18:44;;;;;;;5.47;4.47;;;;;;;5.50;74.82;95246.48;1749070;82;21131;-83
2021/03/12 03:21:10;;;;;;;4.35;3.35;;;;;;;5.49;75.05;95244.88;1819354;79;21169;-83
2021/03/12 03:23:38;;;;;;;5.90;4.20;;;;;;;5.49;75.05;95244.08;1819826;79;21126;-83
2021/03/12 03:26:06;;;;;;;4.33;3.37;;;;;;;5.48;74.95;95247.15;1820157;79;21130;-84
2021/03/12 03:28:32;;;;;;;5.35;4.00;;;;;;;5.46;75.94;95257.33;1820086;79;21082;-83
2021/03/12 03:31:02;;;;;;;4.10;3.70;;;;;;;5.38;75.70;95265.95;1820115;79;21236;-84
2021/03/12 03:33:29;;;;;;;5.10;3.75;;;;;;;5.33;75.58;95270.81;1781469;80;21614;-83
2021/03/12 03:35:55;;;;;;;5.47;4.53;;;;;;;5.25;76.10;95274.28;1757473;82;21166;-83
2021/03/12 03:38:22;;;;;;;4.72;2.90;;;;;;;5.22;76.09;95276.41;1750602;82;21110;-83
2021/03/12 03:40:48;;;;;;;5.75;4.95;;;;;;;5.19;76.84;95269.81;1757955;82;21126;-83
2021/03/12 03:43:14;;;;;;;7.80;5.80;;;;;;;5.19;76.11;95281.40;1750626;82;21102;-83
2021/03/12 03:45:40;;;;;;;5.78;5.12;;;;;;;5.16;76.48;95303.64;1757493;82;21154;-83
2021/03/12 03:48:08;;;;;;;4.70;3.98;;;;;;;5.10;76.33;95309.02;1750597;82;21138;-83
2021/03/12 03:50:36;;;;;;;6.58;5.62;;;;;;;5.08;76.70;95299.86;1756917;82;21138;-83
2021/03/12 03:53:05;;;;;;;6.30;5.15;;;;;;;5.05;76.42;95302.30;1720917;82;21133;-83
2021/03/12 03:55:31;;;;;;;6.12;5.53;;;;;;;5.07;76.39;95296.98;1755866;82;21149;-83
2021/03/12 03:57:59;;;;;;;6.65;5.92;;;;;;;5.04;76.68;95283.14;1750237;82;21103;-83
2021/03/12 04:00:24;;;;;;;6.30;5.30;;;;;;;5.02;76.91;95282.03;1748199;82;21143;-83
2021/03/12 04:02:51;;;;;;;4.90;3.90;;;;;;;5.04;77.17;95285.72;1819090;78;21125;-83
2021/03/12 04:05:17;;;;;;;6.72;5.12;;;;;;;5.12;77.05;95291.61;1819452;79;21145;-83
2021/03/12 04:07:43;;;;;;;7.33;5.85;;;;;;;5.18;76.75;95292.67;1819727;79;21256;-83
2021/03/12 04:10:10;;;;;;;8.38;6.30;;;;;;;5.20;76.36;95301.02;1819682;79;21113;-83
2021/03/12 04:12:36;;;;;;;7.40;5.67;;;;;;;5.22;76.34;95302.97;1788032;79;21126;-83
2021/03/12 04:15:05;;;;;;;12.13;10.93;;;;;;;5.21;76.69;95293.64;1819847;78;21353;-83
2021/03/12 04:17:32;;;;;;;10.08;8.00;;;;;;;5.24;76.26;95295.06;1751450;80;21091;-83
2021/03/12 04:19:58;;;;;;;9.23;6.62;;;;;;;5.26;76.27;95290.53;1820410;79;21125;-84
2021/03/12 04:22:24;;;;;;;9.28;6.80;;;;;;;5.30;76.10;95291.28;1820414;79;21103;-83
2021/03/12 04:24:50;;;;;;;8.73;7.25;;;;;;;5.33;76.19;95303.01;1820313;79;21119;-83
2021/03/12 04:27:16;;;;;;;21.33;14.38;;;;;;;5.35;76.05;95310.87;1820284;79;21101;-83
2021/03/12 04:29:42;;;;;;;29.12;18.07;;;;;;;5.37;76.41;95313.30;1781432;80;21101;-83
2021/03/12 04:32:08;;;;;;;26.60;16.87;;;;;;;5.38;76.10;95319.56;1820277;79;21264;-83
2021/03/12 04:34:34;;;;;;;55.25;37.17;;;;;;;5.41;75.87;95316.62;1781525;80;21154;-83
2021/03/12 04:37:00;;;;;;;57.20;38.42;;;;;;;5.46;75.84;95324.31;1788572;79;21121;-83
2021/03/12 04:39:26;;;;;;;33.67;23.10;;;;;;;5.48;75.71;95323.16;1781547;80;21090;-83
2021/03/12 04:41:52;;;;;;;30.05;22.58;;;;;;;5.48;75.71;95331.38;1820338;79;21098;-83
2021/03/12 04:44:18;;;;;;;15.23;11.18;;;;;;;5.47;75.77;95334.92;1781406;80;21275;-83
2021/03/12 04:46:45;;;;;;;21.62;17.62;;;;;;;5.47;75.81;95334.44;1750606;82;21170;-83
2021/03/12 04:49:12;;;;;;;12.07;9.50;;;;;;;5.48;75.90;95328.80;1820296;79;21079;-83
2021/03/12 04:51:38;;;;;;;19.73;16.67;;;;;;;5.52;75.77;95327.46;1820246;79;21340;-83
2021/03/12 04:54:08;;;;;;;13.90;12.40;;;;;;;5.56;75.81;95329.53;1781486;80;21100;-83
2021/03/12 04:56:35;;;;;;;9.73;8.23;;;;;;;5.61;75.66;95325.12;1820240;79;21102;-83
2021/03/12 04:59:02;;;;;;;6.80;5.62;;;;;;;5.64;75.66;95315.75;1820208;79;21126;-83
2021/03/12 05:01:29;;;;;;;11.97;10.78;;;;;;;5.66;75.85;95313.30;1820407;79;21145;-83
2021/03/12 05:03:55;;;;;;;15.08;13.75;;;;;;;5.69;75.85;95323.74;1781398;80;21114;-83
2021/03/12 05:06:21;;;;;;;10.60;9.23;;;;;;;5.70;75.64;95317.16;1820253;79;21133;-83
2021/03/12 05:08:47;;;;;;;6.87;4.95;;;;;;;5.76;75.42;95332.88;1820241;79;21106;-83
2021/03/12 05:11:13;;;;;;;8.80;5.65;;;;;;;5.79;75.27;95341.54;1820378;79;21419;-83
2021/03/12 05:13:39;;;;;;;6.72;5.62;;;;;;;5.76;74.88;95343.19;1788650;79;21102;-83
2021/03/12 05:16:05;;;;;;;5.58;4.65;;;;;;;5.75;74.78;95350.12;1820317;79;21075;-83
2021/03/12 05:18:31;;;;;;;4.95;4.15;;;;;;;5.71;74.77;95354.83;1820286;79;21324;-83
2021/03/12 05:20:57;;;;;;;7.22;5.65;;;;;;;5.67;74.72;95361.30;1820255;79;21086;-83
2021/03/12 05:23:23;;;;;;;8.15;6.40;;;;;;;5.65;74.57;95363.73;1820229;79;21110;-83
2021/03/12 05:25:50;;;;;;;7.70;5.80;;;;;;;5.65;74.59;95365.83;1820223;79;21106;-83
2021/03/12 05:28:16;;;;;;;9.05;6.28;;;;;;;5.64;74.50;95366.80;1820514;78;21255;-83
2021/03/12 05:30:42;;;;;;;7.83;6.17;;;;;;;5.64;74.37;95369.38;1820403;79;21235;-83
2021/03/12 05:33:09;;;;;;;9.13;6.53;;;;;;;5.62;74.41;95369.25;1820462;78;21105;-83
2021/03/12 05:35:35;;;;;;;7.25;5.00;;;;;;;5.61;74.45;95371.52;1820422;79;21270;-83
2021/03/12 05:38:01;;;;;;;5.42;4.20;;;;;;;5.64;74.45;95375.03;1820273;79;21066;-83
2021/03/12 05:40:27;;;;;;;4.08;3.52;;;;;;;5.69;74.01;95370.14;1820225;78;21464;-83
2021/03/12 05:42:53;;;;;;;5.62;4.58;;;;;;;5.73;73.91;95375.27;1820377;79;21244;-83
2021/03/12 05:45:20;;;;;;;6.58;4.45;;;;;;;5.76;73.71;95370.25;1788361;79;21122;-83
2021/03/12 05:47:46;;;;;;;5.20;4.70;;;;;;;5.75;73.67;95366.07;1820205;79;21325;-83
2021/03/12 05:50:13;;;;;;;6.45;4.70;;;;;;;5.73;73.59;95377.36;1820255;79;21122;-83
2021/03/12 05:52:40;;;;;;;5.90;4.28;;;;;;;5.73;73.61;95389.45;1788984;79;21514;-83
2021/03/12 05:55:07;;;;;;;5.65;3.92;;;;;;;5.75;73.49;95408.11;1820208;79;21257;-83
2021/03/12 05:57:34;;;;;;;7.72;5.10;;;;;;;5.78;73.42;95421.14;1820310;78;21098;-83
2021/03/12 06:00:00;;;;;;;7.55;4.55;;;;;;;5.78;73.37;95419.36;1820173;79;21062;-83
2021/03/12 06:02:26;;;;;;;6.37;5.12;;;;;;;5.81;73.33;95423.36;1820358;78;21220;-83
2021/03/12 06:04:53;;;;;;;8.28;6.03;;;;;;;5.82;73.45;95428.34;1820194;78;21256;-83
2021/03/12 06:07:19;;;;;;;6.08;4.97;;;;;;;5.77;73.37;95433.22;1820273;79;21110;-83
2021/03/12 06:09:45;;;;;;;6.90;5.35;;;;;;;5.76;73.48;95442.42;1820220;79;21079;-83
2021/03/12 06:12:12;;;;;;;6.95;4.92;;;;;;;5.76;73.47;95440.64;1819765;78;21145;-83
2021/03/12 06:14:55;;;;;;;6.20;4.95;;;;;;;5.78;73.26;95446.91;1819639;79;21138;-83
2021/03/12 06:17:39;;;;;;;5.90;3.90;;;;;;;5.79;73.13;95436.91;1819620;79;21138;-83
2021/03/12 06:20:15;;;;;;;6.42;4.95;;;;;;;5.81;72.92;95454.30;1819246;79;21232;-83
2021/03/12 06:22:53;;;;;;;6.35;4.58;;;;;;;5.81;72.87;95453.80;1815764;79;21145;-83
2021/03/12 06:25:27;;;;;;;5.15;4.65;;;;;;;5.83;72.73;95457.49;1819500;79;21165;-83
2021/03/12 06:27:53;;;;;;;5.33;4.17;;;;;;;5.83;72.70;95468.61;1819485;79;21244;-83
2021/03/12 06:30:21;;;;;;;5.45;3.87;;;;;;;5.84;72.60;95465.05;1819440;79;21424;-83
2021/03/12 06:32:52;;;;;;;5.90;4.70;;;;;;;5.86;72.24;95478.59;1820253;79;21280;-83
2021/03/12 06:35:23;;;;;;;6.45;4.50;;;;;;;5.89;72.16;95483.39;1820385;79;21095;-83
2021/03/12 06:37:50;;;;;;;9.50;4.80;;;;;;;5.92;72.16;95487.43;1788371;79;21103;-83
2021/03/12 06:40:26;;;;;;;4.67;4.10;;;;;;;5.92;72.11;95495.97;1788164;79;21110;-83
2021/03/12 06:43:12;;;;;;;14.45;13.05;;;;;;;5.90;71.97;95492.77;1820185;79;21110;-83
2021/03/12 06:45:53;;;;;;;121.77;78.30;;;;;;;5.90;72.05;95494.05;1781356;80;21143;-83
2021/03/12 06:48:33;;;;;;;16.60;11.28;;;;;;;5.90;71.77;95505.66;1820155;79;21099;-83
2021/03/12 06:51:03;;;;;;;6.37;5.58;;;;;;;5.92;71.70;95509.34;1781408;80;21115;-83
2021/03/12 06:53:38;;;;;;;5.55;4.78;;;;;;;5.91;71.68;95513.70;1819246;79;21267;-83
2021/03/12 06:56:12;;;;;;;6.08;5.20;;;;;;;5.88;72.30;95518.38;1820185;79;21224;-83
2021/03/12 06:58:39;;;;;;;5.60;4.00;;;;;;;5.80;72.99;95510.20;1820154;79;21213;-83
2021/03/12 07:01:18;;;;;;;4.55;3.72;;;;;;;5.69;72.87;95515.30;1820385;78;21102;-83
2021/03/12 07:03:44;;;;;;;5.70;3.80;;;;;;;5.64;73.20;95510.33;1820400;79;21121;-83
2021/03/12 07:06:16;;;;;;;10.15;6.95;;;;;;;5.63;73.45;95503.56;1820341;79;21106;-83
2021/03/12 07:08:48;;;;;;;10.55;5.30;;;;;;;5.66;73.36;95506.59;1820579;79;21101;-83
2021/03/12 07:11:27;;;;;;;22.22;12.40;;;;;;;5.71;73.44;95508.19;1820344;79;21099;-83
2021/03/12 07:13:55;;;;;;;8.75;5.05;;;;;;;5.75;73.54;95514.28;1750585;82;21337;-83
2021/03/12 07:16:25;;;;;;;15.40;10.40;;;;;;;5.76;73.39;95515.40;1784601;80;21154;-83
2021/03/12 07:18:53;;;;;;;30.80;24.67;;;;;;;5.78;73.35;95522.47;1749923;82;21137;-83
2021/03/12 07:21:21;;;;;;;11.55;7.65;;;;;;;5.79;73.51;95543.89;1757738;82;21142;-83
2021/03/12 07:23:52;;;;;;;17.70;15.95;;;;;;;5.75;73.71;95527.97;1750536;82;21280;-83
2021/03/12 07:26:19;;;;;;;17.77;16.05;;;;;;;5.69;74.22;95524.32;1757642;82;21158;-83
2021/03/12 07:28:46;;;;;;;13.83;12.53;;;;;;;5.66;74.59;95523.84;1749920;82;21134;-83
2021/03/12 07:31:14;;;;;;;10.28;9.20;;;;;;;5.67;74.74;95525.44;1820161;79;21317;-83
2021/03/12 07:33:44;;;;;;;7.53;5.53;;;;;;;5.68;75.37;95544.59;1820183;79;21105;-83
2021/03/12 07:36:11;;;;;;;12.73;7.40;;;;;;;5.62;75.42;95569.78;1820210;79;21232;-84
2021/03/12 07:38:37;;;;;;;5.20;3.60;;;;;;;5.51;76.08;95570.64;1820159;78;21097;-84
2021/03/12 07:41:06;;;;;;;9.50;4.92;;;;;;;5.33;75.81;95571.70;1817741;79;21075;-84
2021/03/12 07:43:37;;;;;;;11.25;6.15;;;;;;;5.19;77.23;95571.61;1788087;80;21114;-84
2021/03/12 07:46:03;;;;;;;11.68;6.62;;;;;;;5.04;76.05;95571.50;1787992;80;21316;-84
2021/03/12 07:48:30;;;;;;;8.38;5.67;;;;;;;4.89;75.97;95566.77;1787862;79;21126;-84
2021/03/12 07:51:10;;;;;;;10.35;5.92;;;;;;;4.78;76.04;95560.99;1787991;80;21110;-84
2021/03/12 07:53:56;;;;;;;8.83;5.47;;;;;;;4.79;76.47;95565.66;1820626;79;22457;-84
2021/03/12 07:56:47;;;;;;;8.40;5.75;;;;;;;4.79;77.13;95566.94;1793959;80;21244;-83
2021/03/12 07:59:14;;;;;;;15.58;10.18;;;;;;;4.89;77.38;95570.63;1762762;80;21145;-84
2021/03/12 08:01:55;;;;;;;19.02;12.80;;;;;;;5.04;77.80;95572.34;1793986;80;21483;-84
2021/03/12 08:04:32;;;;;;;13.35;9.75;;;;;;;5.15;77.89;95578.07;1794579;80;21114;-84
2021/03/12 08:07:00;;;;;;;13.93;10.10;;;;;;;5.23;78.30;95574.98;1763731;80;21110;-84
2021/03/12 08:09:34;;;;;;;15.35;9.45;;;;;;;5.26;78.30;95584.95;1794788;80;21106;-84
2021/03/12 08:12:01;;;;;;;7.37;5.25;;;;;;;5.29;78.65;95584.61;1794587;80;21130;-84
2021/03/12 08:14:27;;;;;;;14.13;8.70;;;;;;;5.33;78.33;95571.70;1794732;80;21118;-85
2021/03/12 08:17:04;;;;;;;15.55;10.00;;;;;;;5.36;78.36;95570.07;1794640;80;21109;-85
2021/03/12 08:19:32;;;;;;;14.55;11.38;;;;;;;5.36;78.00;95566.20;1794786;80;21094;-85
2021/03/12 08:21:59;;;;;;;10.43;8.43;;;;;;;5.38;77.87;95571.22;1794596;80;21133;-84
2021/03/12 08:24:49;;;;;;;11.97;5.90;;;;;;;5.36;78.06;95579.09;1794580;80;21122;-84
2021/03/12 08:27:44;;;;;;;11.15;7.25;;;;;;;5.35;77.99;95584.41;1794667;80;21141;-84
2021/03/12 08:30:27;;;;;;;10.53;7.47;;;;;;;5.33;78.01;95594.89;1762959;80;21133;-84
2021/03/12 08:32:54;;;;;;;12.65;9.35;;;;;;;5.35;78.21;95601.95;1793444;80;21460;-84
2021/03/12 08:35:38;;;;;;;12.53;10.70;;;;;;;5.35;78.16;95592.94;1794640;80;21074;-84
2021/03/12 08:38:26;;;;;;;9.30;6.28;;;;;;;5.34;78.38;95609.86;1794594;80;21110;-84
2021/03/12 08:40:58;;;;;;;35.52;31.87;;;;;;;5.24;78.69;95617.80;1794538;80;21212;-84
2021/03/12 08:43:27;;;;;;;120.75;100.47;;;;;;;5.11;78.66;95643.27;1793689;80;21161;-84
2021/03/12 08:46:01;;;;;;;34.40;29.85;;;;;;;5.01;78.73;95663.24;1794612;80;21106;-84
2021/03/12 08:48:33;;;;;;;13.62;12.10;;;;;;;4.96;79.25;95672.76;1793461;80;21120;-84
2021/03/12 08:51:06;;;;;;;12.28;10.05;;;;;;;4.90;79.41;95673.42;1794652;80;21113;-84
2021/03/12 08:53:40;;;;;;;7.25;6.33;;;;;;;4.81;79.61;95687.26;1787313;80;21138;-84
2021/03/12 08:56:08;;;;;;;3.70;3.17;;;;;;;4.69;80.03;95710.42;1786739;80;21332;-84
2021/03/12 08:58:38;;;;;;;3.52;2.70;;;;;;;4.48;79.73;95682.13;1786764;80;21087;-84
2021/03/12 09:01:19;;;;;;;4.55;3.72;;;;;;;4.38;79.73;95685.33;1786709;80;21134;-84
2021/03/12 09:03:48;;;;;;;5.78;3.52;;;;;;;4.38;79.94;95692.24;1759583;80;21138;-84
2021/03/12 09:06:20;;;;;;;7.35;4.75;;;;;;;4.38;80.11;95692.24;1786212;80;21126;-84
2021/03/12 09:08:48;;;;;;;9.90;8.80;;;;;;;4.43;80.16;95687.45;1786314;80;21276;-84
2021/03/12 09:11:17;;;;;;;7.35;6.62;;;;;;;4.51;80.47;95692.58;1786166;80;21130;-84
2021/03/12 09:13:44;;;;;;;6.05;5.45;;;;;;;4.58;81.10;95701.28;1785314;80;21103;-84
2021/03/12 09:16:23;;;;;;;8.20;4.28;;;;;;;4.68;80.92;95689.03;1786250;80;21122;-84
2021/03/12 09:18:50;;;;;;;4.33;3.10;;;;;;;4.80;80.86;95683.88;1759893;80;21626;-84
2021/03/12 09:21:19;;;;;;;4.17;2.80;;;;;;;4.91;80.54;95694.34;1786215;80;21110;-84
2021/03/12 09:23:51;;;;;;;3.67;2.67;;;;;;;5.00;80.32;95686.09;1786206;80;21142;-84
2021/03/12 09:26:25;;;;;;;4.12;3.00;;;;;;;5.04;80.69;95694.64;1785358;80;21145;-84
2021/03/12 09:28:53;;;;;;;3.12;2.15;;;;;;;5.10;80.96;95694.45;1785642;80;21130;-84
2021/03/12 09:31:21;;;;;;;4.72;2.70;;;;;;;5.17;79.86;95702.32;1786123;80;21109;-84
2021/03/12 09:33:52;;;;;;;4.30;2.40;;;;;;;5.15;79.91;95720.52;1757872;80;21129;-84
2021/03/12 09:36:26;;;;;;;2.47;1.87;;;;;;;5.12;79.07;95716.98;1786415;80;21240;-84
2021/03/12 09:38:54;;;;;;;2.92;2.20;;;;;;;5.10;79.49;95717.64;1786248;80;21250;-84
2021/03/12 09:41:24;;;;;;;2.58;1.72;;;;;;;5.12;79.21;95722.13;1786172;80;21337;-85
2021/03/12 09:44:12;;;;;;;3.92;2.35;;;;;;;5.18;78.61;95729.67;1785962;80;21127;-84
2021/03/12 09:46:50;;;;;;;4.42;2.52;;;;;;;5.26;79.39;95723.23;1783588;80;21149;-85
2021/03/12 09:49:20;;;;;;;2.90;2.12;;;;;;;5.32;78.29;95733.67;1786012;80;21099;-84
2021/03/12 09:51:54;;;;;;;3.67;2.10;;;;;;;5.38;79.17;95732.23;1786231;80;21115;-84
2021/03/12 09:54:22;;;;;;;3.85;1.90;;;;;;;5.42;77.67;95739.94;1786199;80;21107;-84
2021/03/12 09:56:50;;;;;;;4.12;2.33;;;;;;;5.49;77.89;95739.59;1757704;80;21079;-85
2021/03/12 09:59:23;;;;;;;3.55;2.58;;;;;;;5.59;77.91;95740.21;1786250;80;21428;-84
2021/03/12 10:01:50;;;;;;;2.33;2.10;;;;;;;5.72;78.36;95749.52;1786160;80;21368;-84
2021/03/12 10:04:32;;;;;;;3.70;2.47;;;;;;;5.81;77.76;95738.67;1786322;80;21103;-84
2021/03/12 10:07:07;;;;;;;8.77;2.17;;;;;;;5.86;77.36;95754.46;1786412;80;21306;-84
2021/03/12 10:09:35;;;;;;;2.92;2.00;;;;;;;5.91;77.20;95754.78;1786366;80;21791;-84
2021/03/12 10:12:01;;;;;;;3.85;3.42;;;;;;;6.01;76.50;95759.23;1786101;80;21167;-84
2021/03/12 10:14:38;;;;;;;3.22;2.00;;;;;;;6.08;76.08;95761.16;1786289;80;21114;-84
2021/03/12 10:17:18;;;;;;;2.37;2.00;;;;;;;6.13;75.15;95778.21;1786143;80;21098;-84
2021/03/12 10:19:54;;;;;;;3.98;3.40;;;;;;;6.17;75.43;95770.44;1785226;80;21345;-84
2021/03/12 10:22:27;;;;;;;3.47;2.40;;;;;;;6.36;75.68;95766.17;1786277;80;21138;-84
2021/03/12 10:25:15;;;;;;;3.98;2.70;;;;;;;6.60;75.77;95768.58;1786375;80;21102;-84
2021/03/12 10:27:49;;;;;;;2.83;1.90;;;;;;;6.69;74.07;95759.51;1786144;80;21424;-84
2021/03/12 10:30:30;;;;;;;3.40;2.10;;;;;;;6.72;73.82;95770.77;1785840;80;21091;-84
2021/03/12 10:33:01;;;;;;;2.12;1.92;;;;;;;6.69;72.56;95765.96;1786185;80;21431;-84
2021/03/12 10:35:42;;;;;;;3.33;2.30;;;;;;;6.67;72.59;95766.14;1785503;80;21122;-84
2021/03/12 10:38:20;;;;;;;2.40;2.10;;;;;;;6.77;72.28;95764.11;1786227;80;21106;-84
2021/03/12 10:41:06;;;;;;;2.20;2.00;;;;;;;6.91;72.82;95766.42;1786418;80;21427;-84
2021/03/12 10:43:33;;;;;;;2.42;1.80;;;;;;;6.94;73.03;95771.24;1780589;80;21546;-84
2021/03/12 10:46:05;;;;;;;3.33;2.10;;;;;;;7.00;72.51;95786.55;1786480;80;21118;-84
2021/03/12 10:48:45;;;;;;;2.83;1.98;;;;;;;6.99;71.34;95781.84;1786231;80;21099;-84
2021/03/12 10:51:12;;;;;;;2.35;1.98;;;;;;;7.01;71.99;95775.23;1786117;80;21090;-84
2021/03/12 10:53:53;;;;;;;2.22;2.00;;;;;;;7.01;70.65;95788.16;1782298;80;21174;-84
2021/03/12 10:56:20;;;;;;;4.28;2.58;;;;;;;7.01;71.71;95782.50;1780296;81;21229;-84
2021/03/12 10:58:47;;;;;;;8.50;4.78;;;;;;;7.08;71.86;95783.89;1780430;81;21396;-84
2021/03/12 11:01:29;;;;;;;2.95;2.20;;;;;;;7.13;71.84;95775.92;1780361;81;21294;-84
2021/03/12 11:03:53;;;;;;;7.10;3.92;;;;;;;7.21;71.43;95757.77;1779113;80;21447;-84
2021/03/12 11:06:21;;;;;;;11.55;5.67;;;;;;;7.27;69.95;95761.91;1780392;81;21314;-84
2021/03/12 11:08:47;;;;;;;3.33;2.17;;;;;;;7.26;70.36;95774.03;1780304;81;21122;-84
2021/03/12 11:11:16;;;;;;;2.27;2.08;;;;;;;7.21;68.72;95775.86;1780321;81;21424;-84
2021/03/12 11:13:43;;;;;;;4.08;2.70;;;;;;;7.18;69.16;95776.70;1780210;81;21147;-84
2021/03/12 11:16:09;;;;;;;17.92;8.30;;;;;;;7.16;69.86;95789.00;1780347;81;21111;-84
2021/03/12 11:18:36;;;;;;;2.87;2.35;;;;;;;7.11;68.87;95787.41;1780400;81;21127;-84
2021/03/12 11:21:04;;;;;;;4.17;2.25;;;;;;;7.05;68.42;95800.55;1780490;81;21314;-84
2021/03/12 11:23:30;;;;;;;5.40;2.85;;;;;;;6.96;68.39;95795.11;1780353;81;21131;-83
2021/03/12 11:25:56;;;;;;;14.80;7.42;;;;;;;6.87;68.81;95798.75;1780327;81;21087;-83
2021/03/12 11:28:24;;;;;;;5.37;3.25;;;;;;;6.74;67.17;95795.93;1780269;81;21091;-83
2021/03/12 11:30:50;;;;;;;5.50;4.08;;;;;;;6.60;67.81;95814.25;1780520;81;21082;-84
2021/03/12 11:33:16;;;;;;;4.53;3.10;;;;;;;6.50;67.52;95814.94;1780260;80;21265;-84
2021/03/12 11:35:42;;;;;;;4.25;2.17;;;;;;;6.43;67.84;95810.15;1780282;81;21140;-83
2021/03/12 11:38:09;;;;;;;7.25;3.67;;;;;;;6.40;68.15;95819.04;1780391;81;21286;-84
2021/03/12 11:40:37;;;;;;;3.50;2.77;;;;;;;6.41;67.37;95811.61;1780216;81;21550;-84
2021/03/12 11:43:05;;;;;;;8.08;4.78;;;;;;;6.49;68.07;95821.88;1758117;81;21090;-84
2021/03/12 11:45:31;;;;;;;4.30;3.25;;;;;;;6.60;67.54;95818.92;1780364;81;21330;-84
2021/03/12 11:47:58;;;;;;;4.00;2.30;;;;;;;6.70;67.97;95820.49;1780419;80;21107;-84
2021/03/12 11:50:26;;;;;;;3.92;1.98;;;;;;;6.83;68.39;95821.53;1780406;81;21118;-84